createdAt,value
2023-01-27T03:47:56.387Z,87892.00
2023-01-27T03:48:56.382Z,87892.00
2023-01-27T03:49:56.357Z,87892.00
2023-01-27T03:50:56.336Z,87892.00
2023-01-27T03:51:56.334Z,87888.00
2023-01-27T03:52:56.306Z,87888.00
2023-01-27T03:53:56.307Z,87890.00
2023-01-27T03:54:56.256Z,87888.00
2023-01-27T03:55:56.251Z,87890.00
2023-01-27T03:56:56.229Z,87886.00
2023-01-27T03:57:56.240Z,87888.00
2023-01-27T03:58:56.227Z,87890.00
2023-01-27T03:59:56.202Z,87890.00
2023-01-27T04:00:56.188Z,87888.00
2023-01-27T04:01:56.184Z,87886.00
2023-01-27T04:02:56.184Z,87888.00
2023-01-27T04:03:56.192Z,87886.00
2023-01-27T04:04:56.152Z,87882.00
2023-01-27T04:05:56.127Z,87880.00
2023-01-27T04:06:56.120Z,87882.00
2023-01-27T04:07:56.091Z,87880.00
2023-01-27T04:08:56.085Z,87882.00
2023-01-27T04:09:56.053Z,87880.00
2023-01-27T04:10:56.056Z,87882.00
2023-01-27T04:11:56.038Z,87884.00
2023-01-27T04:12:56.033Z,87880.00
2023-01-27T04:13:56.037Z,87882.00
2023-01-27T04:14:56.010Z,87880.00
2023-01-27T04:15:56.068Z,87880.00
2023-01-27T04:16:56.001Z,87876.00
2023-01-27T04:17:55.981Z,87878.00
2023-01-27T04:18:55.990Z,87878.00
2023-01-27T04:19:55.962Z,87878.00
2023-01-27T04:20:55.948Z,87876.00
2023-01-27T04:21:55.924Z,87876.00
2023-01-27T04:22:55.937Z,87878.00
2023-01-27T04:23:56.004Z,87880.00
2023-01-27T04:24:55.932Z,87876.00
2023-01-27T04:25:55.904Z,87878.00
2023-01-27T04:26:55.881Z,87874.00
2023-01-27T04:27:55.866Z,87874.00
2023-01-27T04:28:55.862Z,87876.00
2023-01-27T04:29:55.847Z,87874.00
2023-01-27T04:30:55.875Z,87874.00
2023-01-27T04:31:55.849Z,87874.00
2023-01-27T04:32:55.789Z,87872.00
2023-01-27T04:33:55.771Z,87874.00
2023-01-27T04:34:55.784Z,87872.00
2023-01-27T04:35:55.744Z,87876.00
2023-01-27T04:36:55.729Z,87876.00
2023-01-27T04:37:55.697Z,87876.00
2023-01-27T04:38:55.694Z,87874.00
2023-01-27T04:39:55.682Z,87872.00
2023-01-27T04:40:55.634Z,87872.00
2023-01-27T04:41:55.639Z,87872.00
2023-01-27T04:42:55.625Z,87872.00
2023-01-27T04:43:55.588Z,87870.00
2023-01-27T04:44:55.607Z,87870.00
2023-01-27T04:45:55.636Z,87870.00
2023-01-27T04:46:55.575Z,87872.00
2023-01-27T04:47:55.555Z,87868.00
2023-01-27T04:48:55.535Z,87868.00
2023-01-27T04:49:55.529Z,87868.00
2023-01-27T04:50:55.502Z,87872.00
2023-01-27T04:51:55.504Z,87866.00
2023-01-27T04:52:55.488Z,87868.00
2023-01-27T04:53:55.467Z,87872.00
2023-01-27T04:54:55.469Z,87872.00
2023-01-27T04:55:55.425Z,87872.00
2023-01-27T04:56:55.432Z,87872.00
2023-01-27T04:57:55.386Z,87872.00
2023-01-27T04:58:55.364Z,87874.00
2023-01-27T04:59:55.387Z,87876.00
2023-01-27T05:00:55.344Z,87878.00
2023-01-27T05:01:55.383Z,87882.00
2023-01-27T05:02:55.340Z,87882.00
2023-01-27T05:03:55.306Z,87884.00
2023-01-27T05:04:55.292Z,87886.00
2023-01-27T05:05:55.280Z,87886.00
2023-01-27T05:06:55.307Z,87890.00
2023-01-27T05:07:55.242Z,87888.00
2023-01-27T05:08:55.246Z,87886.00
2023-01-27T05:09:55.239Z,87888.00
2023-01-27T05:10:55.191Z,87888.00
2023-01-27T05:11:55.184Z,87890.00
2023-01-27T05:12:55.172Z,87886.00
2023-01-27T05:13:55.186Z,87886.00
2023-01-27T05:14:55.171Z,87888.00
2023-01-27T05:15:55.216Z,87888.00
2023-01-27T05:16:55.219Z,87888.00
2023-01-27T05:17:55.132Z,87888.00
2023-01-27T05:18:55.104Z,87892.00
2023-01-27T05:19:55.088Z,87892.00
2023-01-27T05:20:55.080Z,87892.00
2023-01-27T05:21:55.081Z,87890.00
2023-01-27T05:22:55.050Z,87892.00
2023-01-27T05:23:55.080Z,87890.00
2023-01-27T05:24:55.045Z,87892.00
2023-01-27T05:25:55.006Z,87894.00
2023-01-27T05:26:54.978Z,87890.00
2023-01-27T05:27:54.970Z,87892.00
2023-01-27T05:28:54.985Z,87890.00
2023-01-27T05:29:54.976Z,87892.00
2023-01-27T05:30:55.072Z,87894.00
2023-01-27T05:31:54.954Z,87892.00
2023-01-27T05:32:54.919Z,87892.00
2023-01-27T05:33:54.892Z,87890.00
2023-01-27T05:34:54.904Z,87890.00
2023-01-27T05:35:54.875Z,87892.00
2023-01-27T05:36:54.867Z,87894.00
2023-01-27T05:37:54.872Z,87892.00
2023-01-27T05:38:54.831Z,87894.00
2023-01-27T05:39:54.813Z,87892.00
2023-01-27T05:40:54.815Z,87892.00
2023-01-27T05:41:54.789Z,87894.00
2023-01-27T05:42:54.759Z,87894.00
2023-01-27T05:43:54.821Z,87896.00
2023-01-27T05:44:54.773Z,87898.00
2023-01-27T05:45:54.716Z,87900.00
2023-01-27T05:46:54.705Z,87904.00
2023-01-27T05:47:54.681Z,87900.00
2023-01-27T05:48:54.695Z,87904.00
2023-01-27T05:49:54.651Z,87909.00
2023-01-27T05:50:54.637Z,87909.00
2023-01-27T05:51:54.629Z,87907.00
2023-01-27T05:52:54.609Z,87907.00
2023-01-27T05:53:54.587Z,87906.00
2023-01-27T05:54:54.569Z,87906.00
2023-01-27T05:55:54.543Z,87904.00
2023-01-27T05:56:55.584Z,87906.00
2023-01-27T05:57:54.511Z,87907.00
2023-01-27T05:58:54.501Z,87904.00
2023-01-27T05:59:54.467Z,87904.00
2023-01-27T06:00:54.485Z,87904.00
2023-01-27T06:01:54.472Z,87902.00
2023-01-27T06:02:54.497Z,87906.00
2023-01-27T06:03:54.436Z,87909.00
2023-01-27T06:04:54.429Z,87907.00
2023-01-27T06:05:54.387Z,87907.00
2023-01-27T06:06:54.354Z,87907.00
2023-01-27T06:07:55.412Z,87906.00
2023-01-27T06:08:54.412Z,87906.00
2023-01-27T06:09:54.381Z,87906.00
2023-01-27T06:10:54.344Z,87906.00
2023-01-27T06:11:54.336Z,87909.00
2023-01-27T06:12:54.348Z,87909.00
2023-01-27T06:13:54.335Z,87907.00
2023-01-27T06:14:54.276Z,87911.00
2023-01-27T06:15:54.285Z,87909.00
2023-01-27T06:16:54.252Z,87917.00
2023-01-27T06:17:54.234Z,87917.00
2023-01-27T06:18:54.261Z,87917.00
2023-01-27T06:19:54.215Z,87917.00
2023-01-27T06:20:54.183Z,87917.00
2023-01-27T06:21:54.174Z,87917.00
2023-01-27T06:22:54.142Z,87919.00
2023-01-27T06:23:54.180Z,87921.00
2023-01-27T06:24:54.114Z,87925.00
2023-01-27T06:25:54.086Z,87923.00
2023-01-27T06:26:54.071Z,87925.00
2023-01-27T06:27:54.057Z,87923.00
2023-01-27T06:28:54.063Z,87923.00
2023-01-27T06:29:54.061Z,87921.00
2023-01-27T06:30:54.036Z,87923.00
2023-01-27T06:31:54.054Z,87925.00
2023-01-27T06:32:53.985Z,87921.00
2023-01-27T06:33:53.985Z,87927.00
2023-01-27T06:34:53.949Z,87927.00
2023-01-27T06:35:53.906Z,87929.00
2023-01-27T06:36:53.883Z,87927.00
2023-01-27T06:37:53.884Z,87925.00
2023-01-27T06:38:53.904Z,87925.00
2023-01-27T06:39:53.863Z,87929.00
2023-01-27T06:40:53.824Z,87929.00
2023-01-27T06:41:53.829Z,87933.00
2023-01-27T06:42:53.804Z,87939.00
2023-01-27T06:43:53.792Z,87937.00
2023-01-27T06:44:53.754Z,87935.00
2023-01-27T06:45:53.734Z,87937.00
2023-01-27T06:46:53.725Z,87935.00
2023-01-27T06:47:53.732Z,87931.00
2023-01-27T06:48:53.698Z,87937.00
2023-01-27T06:49:53.698Z,87939.00
2023-01-27T06:50:53.673Z,87939.00
2023-01-27T06:51:53.657Z,87947.00
2023-01-27T06:52:53.676Z,87943.00
2023-01-27T06:53:53.636Z,87949.00
2023-01-27T06:54:53.609Z,87949.00
2023-01-27T06:55:53.597Z,87947.00
2023-01-27T07:03:53.443Z,87956.00
2023-01-27T09:17:31.836Z,87997.00
2023-01-27T11:42:26.426Z,87923.00
2023-01-27T13:02:18.027Z,87904.00
2023-01-27T13:03:17.920Z,87904.00
2023-01-27T13:04:17.898Z,87902.00
2023-01-27T13:05:17.877Z,87902.00
2023-01-27T13:06:17.820Z,87900.00
2023-01-27T13:07:17.788Z,87906.00
2023-01-27T13:08:17.746Z,87907.00
2023-01-27T13:09:17.736Z,87906.00
2023-01-27T13:10:17.709Z,87900.00
2023-01-27T13:11:17.651Z,87904.00
2023-01-27T13:12:17.613Z,87906.00
2023-01-27T13:13:17.646Z,87909.00
2023-01-27T13:14:17.533Z,87913.00
2023-01-27T13:15:17.541Z,87911.00
2023-01-27T13:16:17.539Z,87915.00
2023-01-27T13:17:17.433Z,87909.00
2023-01-27T13:18:17.394Z,87913.00
2023-01-27T13:19:17.392Z,87911.00
2023-01-27T13:20:17.368Z,87909.00
2023-01-27T13:21:17.337Z,87913.00
2023-01-27T13:22:17.267Z,87915.00
2023-01-27T13:23:17.215Z,87915.00
2023-01-27T13:24:17.224Z,87907.00
2023-01-27T13:25:17.196Z,87909.00
2023-01-27T13:26:17.142Z,87909.00
2023-01-27T13:27:17.088Z,87911.00
2023-01-27T13:28:17.065Z,87913.00
2023-01-27T13:29:17.072Z,87909.00
2023-01-27T13:30:17.053Z,87911.00
2023-01-27T13:31:17.088Z,87909.00
2023-01-27T13:32:16.969Z,87911.00
2023-01-27T13:33:16.932Z,87907.00
2023-01-27T13:34:16.868Z,87911.00
2023-01-27T13:35:16.875Z,87911.00
2023-01-27T13:36:16.852Z,87909.00
2023-01-27T13:37:16.810Z,87909.00
2023-01-27T13:38:16.751Z,87911.00
2023-01-27T13:39:16.773Z,87909.00
2023-01-27T13:40:16.771Z,87913.00
2023-01-27T13:41:16.678Z,87917.00
2023-01-27T13:42:16.675Z,87921.00
2023-01-27T13:43:16.627Z,87921.00
2023-01-27T13:44:16.594Z,87927.00
2023-01-27T13:45:16.602Z,87925.00
2023-01-27T13:46:17.394Z,87927.00
2023-01-27T13:47:16.505Z,87927.00
2023-01-27T13:48:16.515Z,87931.00
2023-01-27T13:49:16.486Z,87923.00
2023-01-27T13:50:16.461Z,87929.00
2023-01-27T13:51:16.436Z,87931.00
2023-01-27T13:52:16.395Z,87929.00
2023-01-27T13:53:16.355Z,87931.00
2023-01-27T13:54:16.352Z,87931.00
2023-01-27T13:55:16.300Z,87929.00
2023-01-27T13:56:16.304Z,87933.00
2023-01-27T13:57:16.256Z,87931.00
2023-01-27T13:58:16.230Z,87939.00
2023-01-27T13:59:16.214Z,87937.00
2023-01-27T14:00:16.527Z,87935.00
2023-01-27T14:01:16.225Z,87935.00
2023-01-27T14:02:16.143Z,87939.00
2023-01-27T14:03:16.138Z,87943.00
2023-01-27T14:04:16.101Z,87945.00
2023-01-27T14:05:16.053Z,87945.00
2023-01-27T14:06:16.059Z,87943.00
2023-01-27T14:07:16.016Z,87945.00
2023-01-27T14:08:16.032Z,87947.00
2023-01-27T14:09:15.973Z,87945.00
2023-01-27T14:10:16.174Z,87947.00
2023-01-27T14:11:15.943Z,87947.00
2023-01-27T14:12:15.890Z,87949.00
2023-01-27T14:13:15.928Z,87945.00
2023-01-27T14:14:15.870Z,87949.00
2023-01-27T14:15:15.823Z,87951.00
2023-01-27T14:16:15.852Z,87951.00
2023-01-27T14:17:15.786Z,87956.00
2023-01-27T14:18:15.769Z,87956.00
2023-01-27T14:19:15.753Z,87954.00
2023-01-27T14:20:15.922Z,87956.00
2023-01-27T14:21:15.701Z,87954.00
2023-01-27T14:22:15.696Z,87954.00
2023-01-27T14:23:15.639Z,87956.00
2023-01-27T14:24:15.704Z,87958.00
2023-01-27T14:25:15.627Z,87958.00
2023-01-27T14:26:15.626Z,87960.00
2023-01-27T14:27:15.571Z,87958.00
2023-01-27T14:28:15.548Z,87958.00
2023-01-27T14:29:15.545Z,87960.00
2023-01-27T14:30:15.808Z,87960.00
2023-01-27T14:45:15.164Z,87968.00
2023-01-27T14:46:15.165Z,87975.00
2023-01-27T14:47:15.193Z,87968.00
2023-01-27T14:48:15.099Z,87975.00
2023-01-27T14:49:15.098Z,87966.00
2023-01-27T14:50:15.067Z,87966.00
2023-01-27T14:51:15.061Z,87964.00
2023-01-27T14:52:15.024Z,87979.00
2023-01-27T14:53:14.998Z,87977.00
2023-01-27T14:54:14.983Z,87977.00
2023-01-27T14:55:15.189Z,87977.00
2023-01-27T14:56:14.949Z,87977.00
2023-01-27T14:57:14.896Z,87977.00
2023-01-27T14:58:14.909Z,87979.00
2023-01-27T14:59:14.864Z,87979.00
2023-01-27T15:00:14.820Z,87979.00
2023-01-27T15:01:14.769Z,87979.00
2023-01-27T15:02:14.887Z,87979.00
2023-01-27T15:03:14.732Z,87981.00
2023-01-27T15:04:14.706Z,87981.00
2023-01-27T15:05:15.117Z,87983.00
2023-01-27T15:07:14.696Z,87985.00
2023-01-27T17:43:11.288Z,88087.00
2023-01-27T17:44:11.290Z,88089.00
2023-01-27T17:45:11.539Z,88089.00
2023-01-27T17:46:11.266Z,88089.00
2023-01-27T17:47:11.213Z,88089.00
2023-01-27T17:48:11.219Z,88087.00
2023-01-27T17:49:11.228Z,88089.00
2023-01-27T17:50:11.207Z,88091.00
2023-01-27T17:51:11.191Z,88093.00
2023-01-27T17:52:11.149Z,88093.00
2023-01-27T17:53:11.180Z,88093.00
2023-01-27T17:54:11.161Z,88091.00
2023-01-27T17:55:11.437Z,88095.00
2023-01-27T17:56:11.141Z,88097.00
2023-01-27T17:57:11.146Z,88097.00
2023-01-27T17:58:11.141Z,88095.00
2023-01-27T17:59:11.081Z,88097.00
2023-01-27T18:00:11.135Z,88101.00
2023-01-27T18:01:11.115Z,88101.00
2023-01-27T18:02:11.058Z,88101.00
2023-01-27T18:03:11.063Z,88103.00
2023-01-27T18:04:11.064Z,88103.00
2023-01-27T18:05:11.243Z,88103.00
2023-01-27T18:06:11.030Z,88105.00
2023-01-27T18:07:11.014Z,88107.00
2023-01-27T18:08:10.995Z,88107.00
2023-01-27T18:09:12.365Z,88109.00
2023-01-27T18:10:11.028Z,88109.00
2023-01-27T18:11:10.988Z,88109.00
2023-01-27T18:12:10.997Z,88105.00
2023-01-27T18:13:10.973Z,88105.00
2023-01-27T18:14:10.957Z,88107.00
2023-01-27T18:15:11.332Z,88107.00
2023-01-27T18:16:10.916Z,88107.00
2023-01-27T18:17:10.894Z,88109.00
2023-01-27T18:18:10.898Z,88111.00
2023-01-27T18:19:10.862Z,88109.00
2023-01-27T18:20:10.870Z,88107.00
2023-01-27T18:21:10.878Z,88111.00
2023-01-27T18:22:10.834Z,88111.00
2023-01-27T18:23:10.869Z,88111.00
2023-01-27T18:24:10.892Z,88113.00
2023-01-27T18:25:10.840Z,88111.00
2023-01-27T18:26:10.778Z,88113.00
2023-01-27T18:27:10.729Z,88115.00
2023-01-27T18:28:10.736Z,88115.00
2023-01-27T18:29:10.703Z,88117.00
2023-01-27T18:30:10.741Z,88119.00
2023-01-27T18:31:10.806Z,88121.00
2023-01-27T18:32:10.679Z,88119.00
2023-01-27T18:33:10.653Z,88123.00
2023-01-27T18:34:10.641Z,88124.00
2023-01-27T18:35:10.667Z,88126.00
2023-01-27T18:36:10.642Z,88126.00
2023-01-27T18:37:10.607Z,88128.00
2023-01-27T18:38:10.592Z,88128.00
2023-01-27T18:39:10.586Z,88132.00
2023-01-27T18:40:10.588Z,88134.00
2023-01-27T18:41:10.564Z,88130.00
2023-01-27T18:42:10.525Z,88132.00
2023-01-27T18:43:10.503Z,88132.00
2023-01-27T18:44:10.504Z,88136.00
2023-01-27T18:45:10.523Z,88136.00
2023-01-27T18:46:10.587Z,88134.00
2023-01-27T18:47:10.472Z,88132.00
2023-01-27T18:48:10.458Z,88130.00
2023-01-27T18:49:10.483Z,88130.00
2023-01-27T18:50:10.443Z,88130.00
2023-01-27T18:51:10.430Z,88132.00
2023-01-27T18:52:10.396Z,88132.00
2023-01-27T18:53:10.416Z,88134.00
2023-01-27T18:54:10.375Z,88130.00
2023-01-27T18:55:10.385Z,88130.00
2023-01-27T18:56:10.340Z,88128.00
2023-01-27T18:57:10.319Z,88128.00
2023-01-27T18:58:10.333Z,88132.00
2023-01-27T18:59:10.315Z,88130.00
2023-01-27T19:00:10.331Z,88126.00
2023-01-27T19:01:10.350Z,88124.00
2023-01-27T19:02:10.307Z,88124.00
2023-01-27T19:04:10.265Z,88124.00
2023-01-27T19:05:10.272Z,88128.00
2023-01-27T19:06:10.238Z,88128.00
2023-01-27T19:07:10.223Z,88126.00
2023-01-27T19:08:10.214Z,88126.00
2023-01-27T19:09:10.207Z,88126.00
2023-01-27T19:10:10.218Z,88126.00
2023-01-27T19:11:10.189Z,88128.00
2023-01-27T19:12:10.160Z,88126.00
2023-01-27T19:13:10.162Z,88124.00
2023-01-27T19:14:10.166Z,88124.00
2023-01-27T19:15:10.172Z,88121.00
2023-01-27T19:16:10.144Z,88124.00
2023-01-27T19:17:10.137Z,88121.00
2023-01-27T19:18:10.108Z,88123.00
2023-01-27T19:19:10.096Z,88123.00
2023-01-27T19:20:10.109Z,88123.00
2023-01-27T19:21:10.051Z,88124.00
2023-01-27T19:22:10.069Z,88124.00
2023-01-27T19:23:10.046Z,88124.00
2023-01-27T19:24:10.112Z,88124.00
2023-01-27T19:25:10.012Z,88126.00
2023-01-27T19:26:09.981Z,88126.00
2023-01-27T19:27:09.962Z,88124.00
2023-01-27T19:28:09.954Z,88126.00
2023-01-27T19:29:09.952Z,88130.00
2023-01-27T19:30:09.921Z,88134.00
2023-01-27T19:31:09.992Z,88134.00
2023-01-27T19:32:09.894Z,88132.00
2023-01-27T19:33:09.881Z,88132.00
2023-01-27T19:34:09.859Z,88134.00
2023-01-27T19:35:09.859Z,88132.00
2023-01-27T19:36:09.862Z,88134.00
2023-01-27T19:37:09.821Z,88132.00
2023-01-27T19:38:09.777Z,88128.00
2023-01-27T19:39:09.781Z,88130.00
2023-01-27T19:40:09.763Z,88130.00
2023-01-27T19:41:10.799Z,88130.00
2023-01-27T19:42:09.735Z,88132.00
2023-01-27T19:43:09.715Z,88134.00
2023-01-27T19:44:09.684Z,88134.00
2023-01-27T19:45:09.694Z,88134.00
2023-01-27T19:46:09.672Z,88138.00
2023-01-27T19:47:09.658Z,88140.00
2023-01-27T19:48:09.640Z,88142.00
2023-01-27T19:49:10.059Z,88144.00
2023-01-27T19:50:09.602Z,88144.00
2023-01-27T19:51:09.610Z,88142.00
2023-01-27T19:52:09.624Z,88144.00
2023-01-27T19:53:09.562Z,88142.00
2023-01-27T19:54:09.552Z,88146.00
2023-01-27T19:55:09.512Z,88142.00
2023-01-27T19:56:09.528Z,88146.00
2023-01-27T19:57:09.511Z,88148.00
2023-01-27T19:58:09.472Z,88148.00
2023-01-27T19:59:09.489Z,88152.00
2023-01-27T20:00:09.436Z,88152.00
2023-01-27T20:01:09.512Z,88154.00
2023-01-27T20:02:09.428Z,88154.00
2023-01-27T20:03:09.389Z,88156.00
2023-01-27T20:04:09.428Z,88156.00
2023-01-27T20:05:09.377Z,88156.00
2023-01-27T20:06:09.369Z,88156.00
2023-01-27T20:07:09.338Z,88156.00
2023-01-27T20:08:09.299Z,88156.00
2023-01-27T20:09:09.296Z,88156.00
2023-01-27T20:10:09.287Z,88154.00
2023-01-27T20:11:09.277Z,88160.00
2023-01-27T20:12:09.240Z,88162.00
2023-01-27T20:13:09.236Z,88164.00
2023-01-27T20:14:09.227Z,88160.00
2023-01-27T20:15:09.218Z,88160.00
2023-01-27T20:16:09.282Z,88160.00
2023-01-27T20:17:09.191Z,88158.00
2023-01-27T20:18:09.167Z,88156.00
2023-01-27T20:19:09.152Z,88156.00
2023-01-27T20:20:09.141Z,88156.00
2023-01-27T20:21:09.151Z,88152.00
2023-01-27T20:22:09.084Z,88154.00
2023-01-27T20:23:09.078Z,88154.00
2023-01-27T20:24:09.129Z,88156.00
2023-01-27T20:25:09.036Z,88152.00
2023-01-27T20:26:09.024Z,88156.00
2023-01-27T20:27:09.030Z,88154.00
2023-01-27T20:28:09.005Z,88154.00
2023-01-27T20:29:08.998Z,88158.00
2023-01-27T20:30:08.980Z,88158.00
2023-01-27T20:31:08.983Z,88160.00
2023-01-27T20:32:08.942Z,88160.00
2023-01-27T20:33:08.932Z,88160.00
2023-01-27T20:34:08.911Z,88158.00
2023-01-27T20:35:08.901Z,88158.00
2023-01-27T20:36:08.889Z,88156.00
2023-01-27T20:37:08.920Z,88156.00
2023-01-27T20:38:08.870Z,88160.00
2023-01-27T20:39:08.844Z,88160.00
2023-01-27T20:40:08.812Z,88166.00
2023-01-27T20:41:08.823Z,88166.00
2023-01-27T20:42:08.827Z,88168.00
2023-01-27T20:43:08.782Z,88166.00
2023-01-27T20:44:08.785Z,88166.00
2023-01-27T20:45:08.791Z,88166.00
2023-01-27T20:46:08.797Z,88166.00
2023-01-27T20:47:08.791Z,88166.00
2023-01-27T20:48:08.757Z,88166.00
2023-01-27T20:49:08.742Z,88168.00
2023-01-27T20:50:08.706Z,88166.00
2023-01-27T20:51:08.713Z,88162.00
2023-01-27T20:52:08.735Z,88160.00
2023-01-27T20:53:08.697Z,88162.00
2023-01-27T20:54:08.685Z,88164.00
2023-01-27T20:55:08.659Z,88166.00
2023-01-27T20:56:08.656Z,88166.00
2023-01-27T20:57:08.668Z,88166.00
2023-01-27T20:58:08.633Z,88162.00
2023-01-27T20:59:08.631Z,88160.00
2023-01-27T21:00:08.639Z,88166.00
2023-01-27T21:01:08.632Z,88166.00
2023-01-27T21:02:08.669Z,88164.00
2023-01-27T21:03:08.559Z,88166.00
2023-01-27T21:04:08.576Z,88166.00
